Time;durP1;ratioP1;P1;durP2;ratioP2;P2;SDS_P1;SDS_P2;PMS_P1;PMS_P2;Temp;Humidity;BMP_temperature;BMP_pressure;BME280_temperature;BME280_humidity;BME280_pressure;Samples;Min_cycle;Max_cycle;Signal;HPM_P1;HPM_P2
2023/07/26 00:00:45;;;;;;;6.45;2.47;;;13.50;99.90;;;;;;5060358;28;20476;-81
2023/07/26 00:03:11;;;;;;;5.82;2.45;;;13.40;99.90;;;;;;5057446;28;20044;-82
2023/07/26 00:05:36;;;;;;;6.00;2.50;;;13.40;99.90;;;;;;5069852;28;20036;-81
2023/07/26 00:08:02;;;;;;;6.55;2.65;;;13.40;99.90;;;;;;5061970;28;20040;-81
2023/07/26 00:10:27;;;;;;;6.95;2.60;;;13.40;99.90;;;;;;5057729;28;20086;-81
2023/07/26 00:12:53;;;;;;;7.88;2.90;;;13.40;99.90;;;;;;5074159;28;20511;-81
2023/07/26 00:15:19;;;;;;;6.95;3.17;;;13.30;99.90;;;;;;5073012;28;20034;-82
2023/07/26 00:17:45;;;;;;;7.00;3.58;;;13.30;99.90;;;;;;5040773;28;20056;-80
2023/07/26 00:20:10;;;;;;;6.68;3.00;;;13.30;99.90;;;;;;5075128;28;20483;-82
2023/07/26 00:22:36;;;;;;;7.28;3.00;;;13.30;99.90;;;;;;5073949;28;20036;-82
2023/07/26 00:25:02;;;;;;;6.53;3.00;;;13.30;99.90;;;;;;5062832;28;20468;-81
2023/07/26 00:27:27;;;;;;;7.60;3.33;;;13.30;99.90;;;;;;5054599;28;20432;-81
2023/07/26 00:29:53;;;;;;;7.60;3.33;;;13.30;99.90;;;;;;5053656;28;20113;-81
2023/07/26 00:32:19;;;;;;;8.35;3.25;;;13.30;99.90;;;;;;5070126;28;20044;-82
2023/07/26 00:34:44;;;;;;;9.68;3.50;;;13.20;99.90;;;;;;5052886;28;20398;-82
2023/07/26 00:37:10;;;;;;;7.10;3.50;;;13.30;99.90;;;;;;5054745;28;20037;-82
2023/07/26 00:39:35;;;;;;;7.10;3.15;;;13.30;99.90;;;;;;5053797;28;20052;-82
2023/07/26 00:42:01;;;;;;;8.77;3.40;;;13.30;99.90;;;;;;5053696;28;20059;-81
2023/07/26 00:44:27;;;;;;;6.70;3.10;;;13.30;99.90;;;;;;5077705;28;20482;-81
2023/07/26 00:46:52;;;;;;;8.52;3.10;;;13.30;99.90;;;;;;5054690;28;20044;-81
2023/07/26 00:49:18;;;;;;;6.95;3.10;;;13.30;99.90;;;;;;5053200;28;20063;-82
2023/07/26 00:51:43;;;;;;;8.30;3.28;;;13.30;99.90;;;;;;5051975;28;20041;-82
2023/07/26 00:54:09;;;;;;;9.07;3.20;;;13.30;99.90;;;;;;5069385;28;20037;-81
2023/07/26 00:56:35;;;;;;;8.73;3.22;;;13.30;99.90;;;;;;5054362;28;20041;-81
2023/07/26 00:59:02;;;;;;;8.13;3.63;;;13.30;99.90;;;;;;5069838;28;20128;-79
2023/07/26 01:01:27;;;;;;;7.50;2.97;;;13.20;99.90;;;;;;5054377;28;20036;-80
2023/07/26 01:03:53;;;;;;;8.40;3.30;;;13.10;99.90;;;;;;5036237;28;20462;-82
2023/07/26 01:06:48;;;;;;;6.40;3.20;;;13.20;99.90;;;;;;5052390;28;20041;-82
2023/07/26 01:09:58;;;;;;;7.47;3.13;;;13.10;99.90;;;;;;5079579;28;20098;-82
2023/07/26 01:12:33;;;;;;;9.18;3.65;;;13.20;99.90;;;;;;5089629;28;20054;-82
2023/07/26 01:15:05;;;;;;;7.47;3.47;;;13.20;99.90;;;;;;5054260;28;20036;-81
2023/07/26 01:17:31;;;;;;;;;;;13.10;99.90;;;;;;5073462;28;20076;-81
2023/07/26 01:19:56;;;;;;;7.70;3.05;;;13.20;99.90;;;;;;5074060;28;19966;-81
2023/07/26 01:22:22;;;;;;;6.07;3.13;;;13.20;99.90;;;;;;5054867;28;20040;-81
2023/07/26 01:24:48;;;;;;;8.00;3.50;;;13.20;99.90;;;;;;5068270;28;20068;-82
2023/07/26 01:27:13;;;;;;;6.05;3.20;;;13.20;99.90;;;;;;5039790;28;20047;-82
2023/07/26 01:29:39;;;;;;;7.30;3.13;;;13.30;99.90;;;;;;5068977;28;20061;-81
2023/07/26 01:32:07;;;;;;;7.65;3.28;;;13.30;99.90;;;;;;5068640;28;20036;-82
2023/07/26 01:34:33;;;;;;;6.28;3.67;;;13.30;99.90;;;;;;5067035;28;20040;-81
2023/07/26 01:36:59;;;;;;;6.53;3.28;;;13.20;99.90;;;;;;5072441;28;20032;-82
2023/07/26 01:39:27;;;;;;;6.30;3.00;;;13.20;99.90;;;;;;5058196;28;20386;-82
2023/07/26 01:41:53;;;;;;;6.05;3.00;;;13.20;99.90;;;;;;5053673;28;20041;-82
2023/07/26 01:44:19;;;;;;;8.35;3.30;;;13.20;99.90;;;;;;5041927;28;20446;-82
2023/07/26 01:46:44;;;;;;;7.90;3.40;;;13.10;99.90;;;;;;5052237;28;20048;-81
2023/07/26 01:49:10;;;;;;;7.95;3.28;;;13.10;99.90;;;;;;5052548;28;20041;-81
2023/07/26 01:51:35;;;;;;;7.80;3.60;;;13.10;99.90;;;;;;5068825;28;20037;-82
2023/07/26 01:54:01;;;;;;;8.23;3.35;;;13.20;99.90;;;;;;5064790;28;20037;-81
2023/07/26 01:56:26;;;;;;;7.50;3.22;;;13.20;99.90;;;;;;5054832;28;20036;-81
2023/07/26 01:58:52;;;;;;;7.63;3.30;;;13.20;99.90;;;;;;5068725;28;20040;-81
2023/07/26 02:01:18;;;;;;;8.48;3.40;;;13.10;99.90;;;;;;5051847;28;20052;-81
2023/07/26 02:03:43;;;;;;;8.38;3.17;;;13.10;99.90;;;;;;5053790;28;20045;-82
2023/07/26 02:06:09;;;;;;;7.68;2.95;;;13.20;99.90;;;;;;5078516;28;20041;-81
2023/07/26 02:08:35;;;;;;;7.60;3.30;;;13.00;99.90;;;;;;5068564;28;20052;-82
2023/07/26 02:11:00;;;;;;;7.40;3.00;;;13.00;99.90;;;;;;5070519;28;20040;-81
2023/07/26 02:13:26;;;;;;;7.38;3.10;;;13.00;99.90;;;;;;5054116;28;20039;-81
2023/07/26 02:15:52;;;;;;;6.22;3.10;;;13.00;99.90;;;;;;5073301;28;20033;-81
2023/07/26 02:18:18;;;;;;;8.15;3.13;;;12.90;99.90;;;;;;5061954;28;20127;-81
2023/07/26 02:20:43;;;;;;;6.78;3.30;;;12.90;99.90;;;;;;5053111;28;20033;-81
2023/07/26 02:23:09;;;;;;;9.35;3.40;;;13.00;99.90;;;;;;5064673;28;20037;-81
2023/07/26 02:25:34;;;;;;;6.43;3.45;;;12.90;99.90;;;;;;5088472;28;20044;-81
2023/07/26 02:28:00;;;;;;;5.80;2.90;;;12.90;99.90;;;;;;5079562;28;20084;-81
2023/07/26 02:30:26;;;;;;;7.82;3.63;;;12.90;99.90;;;;;;5054251;28;20049;-81
2023/07/26 02:32:51;;;;;;;7.43;3.50;;;13.00;99.90;;;;;;5041317;28;20044;-81
2023/07/26 02:35:17;;;;;;;7.47;3.35;;;12.90;99.90;;;;;;5055626;28;20064;-81
2023/07/26 02:37:43;;;;;;;6.80;3.20;;;12.80;99.90;;;;;;5052105;28;20028;-81
2023/07/26 02:40:09;;;;;;;6.38;3.10;;;12.80;99.90;;;;;;5057689;28;20090;-81
2023/07/26 02:42:34;;;;;;;7.22;3.30;;;12.80;99.90;;;;;;5073193;28;20501;-81
2023/07/26 02:45:00;;;;;;;6.35;3.40;;;12.80;99.90;;;;;;5050619;28;20090;-80
2023/07/26 02:47:25;;;;;;;6.70;3.50;;;12.80;99.90;;;;;;5051262;28;20497;-81
2023/07/26 02:49:51;;;;;;;7.55;3.80;;;12.80;99.90;;;;;;5063149;28;20048;-81
2023/07/26 02:52:17;;;;;;;8.85;3.78;;;12.80;99.90;;;;;;5069495;28;20553;-81
2023/07/26 02:54:42;;;;;;;6.40;3.10;;;12.80;99.90;;;;;;5067805;28;20041;-81
2023/07/26 02:57:08;;;;;;;4.60;2.80;;;12.80;99.90;;;;;;5056423;28;20486;-82
2023/07/26 02:59:33;;;;;;;5.13;2.72;;;12.80;99.90;;;;;;5063890;28;20033;-82
2023/07/26 03:01:59;;;;;;;6.65;3.58;;;12.70;99.90;;;;;;5060569;28;20493;-81
2023/07/26 03:04:25;;;;;;;5.50;3.25;;;12.70;99.90;;;;;;5063189;28;20045;-81
2023/07/26 03:06:51;;;;;;;7.25;3.42;;;12.70;99.90;;;;;;5059386;28;20509;-82
2023/07/26 03:09:17;;;;;;;6.53;3.30;;;12.60;99.90;;;;;;5063761;28;20044;-82
2023/07/26 03:11:42;;;;;;;6.10;3.17;;;12.60;99.90;;;;;;5070229;28;20558;-81
2023/07/26 03:14:08;;;;;;;8.05;3.25;;;12.60;99.90;;;;;;5068722;28;20033;-81
2023/07/26 03:16:33;;;;;;;6.72;3.35;;;12.60;99.90;;;;;;5062870;28;20029;-82
2023/07/26 03:18:59;;;;;;;5.18;2.95;;;12.50;99.90;;;;;;5066669;28;20036;-81
2023/07/26 03:21:25;;;;;;;5.30;2.78;;;12.40;99.90;;;;;;5076077;28;20040;-81
2023/07/26 03:23:51;;;;;;;6.20;2.80;;;12.50;99.90;;;;;;5062899;28;20048;-81
2023/07/26 03:26:16;;;;;;;5.97;2.97;;;12.50;99.90;;;;;;5054294;28;20045;-81
2023/07/26 03:28:42;;;;;;;6.38;3.20;;;12.50;99.90;;;;;;5062601;28;20040;-81
2023/07/26 03:31:07;;;;;;;6.55;3.08;;;12.40;99.90;;;;;;5070942;28;20094;-82
2023/07/26 03:33:33;;;;;;;5.78;2.30;;;12.50;99.90;;;;;;5061833;28;20033;-81
2023/07/26 03:35:59;;;;;;;3.70;2.33;;;12.50;99.90;;;;;;5080201;28;20416;-81
2023/07/26 03:38:25;;;;;;;4.78;2.22;;;12.50;99.90;;;;;;5068495;28;20511;-81
2023/07/26 03:40:51;;;;;;;4.28;2.47;;;12.40;99.90;;;;;;5055434;28;20068;-81
2023/07/26 03:43:16;;;;;;;5.50;2.70;;;12.40;99.90;;;;;;5057805;28;20032;-81
2023/07/26 03:45:42;;;;;;;5.60;2.50;;;12.40;99.90;;;;;;5073807;28;20400;-81
2023/07/26 03:48:08;;;;;;;6.90;3.95;;;12.40;99.90;;;;;;5073556;28;20036;-80
2023/07/26 03:50:33;;;;;;;6.95;2.90;;;12.40;99.90;;;;;;5060206;28;20041;-81
2023/07/26 03:52:59;;;;;;;5.05;2.90;;;12.30;99.90;;;;;;5053856;28;20483;-80
2023/07/26 03:55:25;;;;;;;5.80;3.10;;;12.30;99.90;;;;;;5072071;28;20502;-80
2023/07/26 03:57:50;;;;;;;7.43;3.63;;;12.30;99.90;;;;;;5086975;28;20036;-80
2023/07/26 04:00:16;;;;;;;6.75;3.20;;;12.30;99.90;;;;;;5062043;28;20468;-81
2023/07/26 04:02:42;;;;;;;6.50;3.45;;;12.40;99.90;;;;;;5065325;28;20507;-81
2023/07/26 04:05:07;;;;;;;7.50;3.35;;;12.40;99.90;;;;;;5047376;28;20112;-80
2023/07/26 04:07:38;;;;;;;6.13;3.42;;;12.40;99.90;;;;;;5057698;28;20451;-80
2023/07/26 04:10:04;;;;;;;10.27;4.03;;;12.40;99.90;;;;;;5057194;28;20115;-80
2023/07/26 04:12:29;;;;;;;5.80;3.17;;;12.40;99.90;;;;;;5055828;28;20512;-80
2023/07/26 04:14:55;;;;;;;6.95;3.50;;;12.50;99.90;;;;;;5071882;28;20064;-80
2023/07/26 04:17:20;;;;;;;8.77;3.83;;;12.60;99.90;;;;;;5078569;28;20044;-81
2023/07/26 04:19:46;;;;;;;7.78;3.80;;;12.60;99.90;;;;;;5072290;28;20111;-81
2023/07/26 04:22:12;;;;;;;8.00;3.53;;;12.60;99.90;;;;;;5071692;28;20048;-81
2023/07/26 04:24:44;;;;;;;7.93;3.53;;;12.50;99.90;;;;;;5056461;28;20068;-81
2023/07/26 04:27:10;;;;;;;7.05;4.03;;;12.60;99.90;;;;;;5070212;28;20082;-80
2023/07/26 04:29:36;;;;;;;8.57;3.80;;;12.60;99.90;;;;;;5080805;28;20049;-80
2023/07/26 04:32:02;;;;;;;7.28;3.30;;;12.70;99.90;;;;;;5082605;28;20049;-81
2023/07/26 04:34:27;;;;;;;6.72;3.50;;;12.70;99.90;;;;;;5068021;28;20400;-81
2023/07/26 04:36:53;;;;;;;7.47;3.90;;;12.60;99.90;;;;;;5062625;28;20755;-80
2023/07/26 04:39:18;;;;;;;7.63;3.72;;;12.60;99.90;;;;;;5073309;28;20037;-80
2023/07/26 04:41:44;;;;;;;7.25;3.85;;;12.70;99.90;;;;;;5067273;28;20051;-80
2023/07/26 04:44:10;;;;;;;7.68;3.85;;;12.60;99.90;;;;;;5070634;28;20032;-81
2023/07/26 04:46:35;;;;;;;7.35;3.78;;;12.70;99.90;;;;;;5089236;28;20036;-81
2023/07/26 04:49:01;;;;;;;7.57;4.00;;;12.70;99.90;;;;;;5085630;28;20033;-80
2023/07/26 04:51:27;;;;;;;6.35;3.45;;;12.70;99.90;;;;;;5069493;28;20130;-80
2023/07/26 04:53:52;;;;;;;9.57;4.20;;;12.70;99.90;;;;;;5072109;28;20071;-80
2023/07/26 04:56:18;;;;;;;6.88;3.97;;;12.70;99.90;;;;;;5072094;28;20047;-81
2023/07/26 04:58:43;;;;;;;7.82;3.33;;;12.70;99.90;;;;;;5085784;28;20124;-80
2023/07/26 05:01:09;;;;;;;7.32;3.80;;;12.80;99.90;;;;;;5073586;28;20115;-81
2023/07/26 05:03:37;;;;;;;8.27;3.80;;;12.90;99.90;;;;;;5065927;28;20060;-80
2023/07/26 05:06:02;;;;;;;6.55;3.25;;;12.90;99.90;;;;;;5083064;28;20033;-80
2023/07/26 05:08:28;;;;;;;8.65;3.38;;;12.90;99.90;;;;;;5046220;28;20487;-80
2023/07/26 05:10:54;;;;;;;8.05;3.72;;;13.00;99.90;;;;;;5072747;28;20051;-80
2023/07/26 05:13:20;;;;;;;7.22;3.75;;;12.90;99.90;;;;;;5072635;28;20374;-80
2023/07/26 05:15:46;;;;;;;7.60;3.45;;;12.90;99.90;;;;;;5068323;28;20158;-80
2023/07/26 05:18:14;;;;;;;7.78;3.20;;;13.00;99.90;;;;;;5069942;28;20036;-81
2023/07/26 05:20:40;;;;;;;6.00;3.13;;;13.00;99.90;;;;;;5065346;28;20477;-80
2023/07/26 05:23:06;;;;;;;6.55;3.03;;;13.00;99.90;;;;;;5078713;28;20467;-80
2023/07/26 05:25:32;;;;;;;6.47;3.17;;;13.10;99.90;;;;;;5042624;28;20041;-80
2023/07/26 05:27:58;;;;;;;6.78;2.80;;;13.10;99.90;;;;;;5084061;28;20060;-80
2023/07/26 05:30:24;;;;;;;5.65;2.72;;;13.20;99.90;;;;;;5061072;28;20049;-80
2023/07/26 05:32:49;;;;;;;5.70;2.70;;;13.20;99.90;;;;;;5064562;28;20043;-81
2023/07/26 05:35:15;;;;;;;6.00;2.47;;;13.20;99.90;;;;;;5085454;28;20492;-81
2023/07/26 05:37:42;;;;;;;6.53;2.80;;;13.20;99.90;;;;;;5064508;28;20131;-81
2023/07/26 05:40:08;;;;;;;4.65;2.40;;;13.20;99.90;;;;;;5064631;28;20132;-81
2023/07/26 05:42:35;;;;;;;5.13;2.20;;;13.30;99.90;;;;;;5071211;28;20072;-80
2023/07/26 05:45:00;;;;;;;6.03;2.25;;;13.30;99.90;;;;;;5063513;28;20056;-81
2023/07/26 05:47:26;;;;;;;5.93;2.33;;;13.30;99.90;;;;;;5035849;28;20045;-81
2023/07/26 05:49:51;;;;;;;4.55;2.30;;;13.40;99.90;;;;;;5062175;28;20494;-80
2023/07/26 05:52:19;;;;;;;6.40;2.33;;;13.40;99.90;;;;;;5059317;28;20080;-81
2023/07/26 05:54:44;;;;;;;5.13;2.20;;;13.40;99.90;;;;;;5066682;28;20051;-80
2023/07/26 05:57:10;;;;;;;5.55;2.17;;;13.40;99.90;;;;;;5089020;28;20124;-80
2023/07/26 05:59:35;;;;;;;5.28;2.20;;;13.40;99.90;;;;;;5071814;28;20051;-81
2023/07/26 06:02:01;;;;;;;4.75;1.80;;;13.50;99.90;;;;;;5054631;28;20044;-85
2023/07/26 06:04:31;;;;;;;4.53;1.92;;;13.30;99.90;;;;;;5035701;28;20037;-85
2023/07/26 06:06:57;;;;;;;5.05;2.13;;;13.30;99.90;;;;;;5047095;28;20041;-85
2023/07/26 06:09:25;;;;;;;4.47;1.98;;;13.30;99.90;;;;;;5081531;28;20040;-85
2023/07/26 06:11:51;;;;;;;4.47;1.80;;;13.30;99.90;;;;;;5069192;28;20049;-85
2023/07/26 06:14:16;;;;;;;3.95;1.80;;;13.40;99.90;;;;;;5060296;28;20033;-84
2023/07/26 06:16:42;;;;;;;5.28;1.77;;;13.40;99.90;;;;;;5054769;28;20029;-84
2023/07/26 06:19:08;;;;;;;5.47;1.95;;;13.50;99.90;;;;;;5071558;28;20454;-84
2023/07/26 06:21:34;;;;;;;4.93;1.77;;;13.50;99.90;;;;;;5053502;28;20056;-84
2023/07/26 06:23:59;;;;;;;6.80;2.33;;;13.50;99.90;;;;;;5067368;28;20036;-84
2023/07/26 06:26:25;;;;;;;5.38;2.20;;;13.60;99.90;;;;;;5053918;28;20048;-84
2023/07/26 06:28:50;;;;;;;8.27;2.10;;;13.60;99.90;;;;;;5071510;28;20139;-84
2023/07/26 06:31:16;;;;;;;7.20;2.25;;;13.70;99.90;;;;;;5062817;28;20488;-83
2023/07/26 06:33:42;;;;;;;4.47;2.10;;;13.70;99.90;;;;;;5053461;28;20036;-84
2023/07/26 06:36:08;;;;;;;7.50;2.47;;;13.80;99.90;;;;;;5064183;28;20132;-84
2023/07/26 06:38:33;;;;;;;6.78;2.58;;;13.80;99.90;;;;;;5060447;28;20401;-84
2023/07/26 06:41:00;;;;;;;5.47;2.35;;;13.80;99.90;;;;;;5064952;28;20041;-83
2023/07/26 06:43:26;;;;;;;4.32;2.25;;;13.90;99.90;;;;;;5068658;28;20052;-73
2023/07/26 06:45:52;;;;;;;6.32;2.22;;;13.90;99.90;;;;;;5061359;28;20054;-73
2023/07/26 06:48:21;;;;;;;6.32;2.20;;;13.90;99.90;;;;;;5067552;28;20139;-75
2023/07/26 06:50:47;;;;;;;5.82;2.58;;;14.00;99.90;;;;;;5091520;28;20040;-75
2023/07/26 06:53:12;;;;;;;4.57;2.50;;;14.10;99.90;;;;;;5072809;28;20391;-75
2023/07/26 06:55:38;;;;;;;6.18;2.40;;;14.20;99.90;;;;;;5059077;28;20040;-74
2023/07/26 06:58:05;;;;;;;5.30;2.47;;;14.20;99.90;;;;;;5067828;28;20543;-75
2023/07/26 07:00:30;;;;;;;5.78;2.65;;;14.30;99.90;;;;;;5058230;28;20040;-75
2023/07/26 07:02:58;;;;;;;6.47;2.67;;;14.30;99.90;;;;;;5073918;28;20576;-74
2023/07/26 07:05:24;;;;;;;6.43;2.70;;;14.40;99.90;;;;;;5075132;28;20051;-75
2023/07/26 07:07:49;;;;;;;5.05;2.53;;;14.50;99.90;;;;;;5072541;28;20120;-75
2023/07/26 07:10:15;;;;;;;5.38;2.50;;;14.50;99.90;;;;;;5060151;28;20466;-78
2023/07/26 07:12:40;;;;;;;7.50;2.55;;;14.70;99.90;;;;;;5058811;28;20024;-77
2023/07/26 07:15:07;;;;;;;6.05;2.63;;;14.60;99.90;;;;;;5071776;28;20047;-79
2023/07/26 07:17:33;;;;;;;6.40;2.70;;;14.50;99.90;;;;;;5073704;28;20447;-83
2023/07/26 07:19:59;;;;;;;5.78;2.83;;;14.50;99.90;;;;;;5072145;28;20064;-83
2023/07/26 07:22:25;;;;;;;6.65;2.83;;;14.30;99.90;;;;;;5075851;28;20517;-83
2023/07/26 07:24:52;;;;;;;11.10;3.40;;;14.20;99.90;;;;;;5062364;28;20064;-81
2023/07/26 07:27:21;;;;;;;7.32;2.97;;;14.20;99.90;;;;;;5065721;28;20041;-82
2023/07/26 07:29:47;;;;;;;6.15;2.67;;;14.10;99.90;;;;;;5062282;28;20068;-81
2023/07/26 07:32:13;;;;;;;5.28;2.45;;;14.10;99.90;;;;;;5070556;28;20527;-82
2023/07/26 07:34:38;;;;;;;5.75;2.85;;;14.10;99.90;;;;;;5062996;28;20362;-81
2023/07/26 07:37:04;;;;;;;6.88;3.00;;;14.20;99.90;;;;;;5053556;28;20051;-81
2023/07/26 07:39:31;;;;;;;8.82;3.15;;;14.10;99.90;;;;;;5057575;28;20078;-81
2023/07/26 07:41:57;;;;;;;6.38;2.88;;;14.20;99.90;;;;;;5066735;28;20500;-81
2023/07/26 07:44:22;;;;;;;6.05;3.28;;;14.10;99.90;;;;;;5083061;28;20048;-82
2023/07/26 07:46:48;;;;;;;6.80;2.88;;;14.10;99.90;;;;;;5062330;28;20123;-82
2023/07/26 07:49:14;;;;;;;5.80;2.80;;;14.10;99.90;;;;;;5041704;28;20044;-82
2023/07/26 07:51:39;;;;;;;7.93;3.40;;;14.10;99.90;;;;;;5071527;28;20397;-82
2023/07/26 07:54:05;;;;;;;9.43;3.10;;;14.10;99.90;;;;;;5053590;28;20055;-82
2023/07/26 07:56:30;;;;;;;7.05;3.25;;;14.20;99.90;;;;;;5059508;28;20037;-82
2023/07/26 07:58:56;;;;;;;8.43;3.35;;;14.10;99.90;;;;;;5073949;28;20040;-82
2023/07/26 08:01:22;;;;;;;6.43;3.13;;;14.10;99.90;;;;;;5054450;28;20033;-83
2023/07/26 08:03:48;;;;;;;5.35;2.72;;;14.20;99.90;;;;;;5048971;28;20120;-82
2023/07/26 08:06:14;;;;;;;5.57;2.08;;;14.20;99.90;;;;;;5041397;28;20392;-82
2023/07/26 08:08:40;;;;;;;4.57;2.20;;;14.40;99.90;;;;;;5072173;28;20044;-82
2023/07/26 08:11:09;;;;;;;4.35;1.80;;;14.50;99.90;;;;;;5070942;28;20051;-82
2023/07/26 08:13:35;;;;;;;4.68;1.70;;;14.60;99.90;;;;;;5069146;28;20090;-82
2023/07/26 08:16:01;;;;;;;3.28;1.33;;;14.80;99.90;;;;;;5055028;28;20064;-83
2023/07/26 08:18:27;;;;;;;4.15;1.52;;;14.70;99.90;;;;;;5056383;28;20083;-83
2023/07/26 08:20:52;;;;;;;2.97;1.30;;;14.70;99.90;;;;;;5065700;28;20040;-82
2023/07/26 08:23:18;;;;;;;2.67;1.50;;;14.60;99.90;;;;;;5053874;28;20071;-82
2023/07/26 08:25:43;;;;;;;3.72;1.55;;;14.70;99.90;;;;;;5072418;28;20141;-82
2023/07/26 08:28:09;;;;;;;4.20;1.50;;;14.70;99.90;;;;;;5068119;28;20045;-81
2023/07/26 08:30:35;;;;;;;4.28;1.73;;;14.70;99.90;;;;;;5065077;28;20070;-81
2023/07/26 08:33:01;;;;;;;3.58;1.67;;;14.80;99.90;;;;;;5055517;28;20485;-82
2023/07/26 08:35:26;;;;;;;6.60;1.80;;;15.00;99.90;;;;;;5055936;28;20032;-82
2023/07/26 08:37:52;;;;;;;4.68;1.30;;;14.90;99.90;;;;;;5067472;28;20384;-82
2023/07/26 08:40:18;;;;;;;2.65;1.30;;;15.10;99.90;;;;;;5081517;28;20037;-82
2023/07/26 08:42:45;;;;;;;3.92;1.58;;;15.20;99.90;;;;;;5057874;28;20048;-82
2023/07/26 08:45:10;;;;;;;2.80;1.40;;;15.30;99.90;;;;;;5052691;28;20409;-82
2023/07/26 08:47:36;;;;;;;3.08;1.48;;;15.30;99.90;;;;;;5058115;28;20045;-82
2023/07/26 08:50:06;;;;;;;4.40;1.70;;;15.40;99.90;;;;;;5056386;28;20186;-82
2023/07/26 08:52:32;;;;;;;6.55;1.70;;;15.60;99.90;;;;;;5059939;28;20120;-82
2023/07/26 08:54:59;;;;;;;4.22;1.77;;;15.60;99.90;;;;;;5073901;28;20408;-82
2023/07/26 08:57:25;;;;;;;3.60;1.38;;;15.80;99.90;;;;;;5071143;28;20090;-81
2023/07/26 08:59:51;;;;;;;3.92;1.90;;;15.80;99.90;;;;;;5071463;28;20044;-82
2023/07/26 09:02:19;;;;;;;6.85;2.22;;;15.70;99.90;;;;;;5058979;28;20045;-82
2023/07/26 09:04:46;;;;;;;5.55;2.20;;;15.70;99.90;;;;;;5069229;28;20048;-83
2023/07/26 09:07:12;;;;;;;3.90;2.13;;;15.90;99.90;;;;;;5062598;28;20489;-82
2023/07/26 09:09:38;;;;;;;5.40;2.35;;;15.80;99.90;;;;;;5051899;28;20119;-82
2023/07/26 09:12:04;;;;;;;5.40;2.50;;;15.90;99.90;;;;;;5056059;28;20509;-82
2023/07/26 09:14:32;;;;;;;5.20;2.55;;;15.80;99.90;;;;;;5041661;28;20041;-82
2023/07/26 09:17:00;;;;;;;4.93;2.47;;;15.80;99.90;;;;;;5070500;28;20513;-82
2023/07/26 09:19:29;;;;;;;5.43;2.63;;;15.80;99.90;;;;;;5064101;28;20393;-82
2023/07/26 09:22:02;;;;;;;5.30;2.65;;;15.80;99.90;;;;;;5071986;28;20071;-82
2023/07/26 09:24:33;;;;;;;5.70;2.65;;;15.70;99.90;;;;;;5056187;28;20052;-83
2023/07/26 09:27:11;;;;;;;5.87;2.67;;;16.00;99.90;;;;;;5051226;28;20056;-83
2023/07/26 09:29:40;;;;;;;5.97;2.78;;;16.00;99.90;;;;;;5062383;28;20036;-84
2023/07/26 09:32:07;;;;;;;5.22;2.60;;;16.30;99.90;;;;;;5066042;28;20044;-83
2023/07/26 09:34:33;;;;;;;4.88;2.47;;;16.40;99.90;;;;;;5056491;28;20045;-83
2023/07/26 09:36:59;;;;;;;6.28;2.70;;;16.60;99.90;;;;;;5057394;28;20029;-84
2023/07/26 09:39:26;;;;;;;5.10;2.53;;;16.60;99.90;;;;;;5068224;28;20123;-83
2023/07/26 09:42:22;;;;;;;4.97;2.40;;;16.70;99.90;;;;;;5069237;28;20044;-83
2023/07/26 09:44:54;;;;;;;4.85;2.05;;;16.90;99.90;;;;;;5051580;28;20066;-84
2023/07/26 09:47:33;;;;;;;5.07;2.10;;;17.00;99.90;;;;;;5051392;28;20044;-83
2023/07/26 09:49:59;;;;;;;5.32;2.10;;;17.20;99.90;;;;;;5061215;28;20484;-83
2023/07/26 09:52:25;;;;;;;5.57;2.22;;;17.10;99.90;;;;;;5072044;28;20123;-83
2023/07/26 09:54:52;;;;;;;4.97;2.63;;;17.00;99.90;;;;;;5070645;28;20078;-83
2023/07/26 09:57:21;;;;;;;6.22;2.03;;;17.00;99.90;;;;;;5057865;28;20451;-83
2023/07/26 09:59:48;;;;;;;6.43;2.45;;;17.20;99.90;;;;;;5063865;28;20430;-82
2023/07/26 10:02:14;;;;;;;5.03;2.42;;;17.30;99.90;;;;;;5079031;28;20123;-83
2023/07/26 10:04:53;;;;;;;4.85;2.05;;;17.00;99.90;;;;;;5055257;28;20120;-82
2023/07/26 10:07:20;;;;;;;4.97;2.30;;;16.90;99.90;;;;;;5071392;28;20036;-82
2023/07/26 10:09:47;;;;;;;8.93;3.05;;;16.80;99.90;;;;;;5072788;28;20054;-83
2023/07/26 10:12:14;;;;;;;4.95;2.40;;;16.70;99.90;;;;;;5073051;28;20044;-82
2023/07/26 10:14:41;;;;;;;4.10;1.90;;;16.70;99.90;;;;;;5089196;28;20165;-82
2023/07/26 10:17:07;;;;;;;3.70;1.52;;;16.70;99.90;;;;;;5054749;28;20047;-83
2023/07/26 10:19:36;;;;;;;3.88;1.70;;;16.70;99.90;;;;;;5062291;28;20528;-83
2023/07/26 10:22:03;;;;;;;4.35;2.10;;;16.80;99.90;;;;;;5069244;28;20378;-83
2023/07/26 10:24:30;;;;;;;5.03;2.28;;;16.80;99.90;;;;;;5054396;28;20051;-82
2023/07/26 10:26:56;;;;;;;5.32;2.22;;;17.10;99.90;;;;;;5059828;28;20081;-83
2023/07/26 10:29:22;;;;;;;5.78;2.55;;;17.20;99.90;;;;;;5054942;28;20382;-82
2023/07/26 10:32:02;;;;;;;5.78;2.53;;;17.30;99.90;;;;;;5066373;28;20072;-83
2023/07/26 10:34:28;;;;;;;6.45;3.00;;;17.30;99.90;;;;;;5068439;28;20094;-83
2023/07/26 10:36:54;;;;;;;5.90;2.90;;;17.40;99.90;;;;;;5075614;28;20032;-82
2023/07/26 10:39:34;;;;;;;5.55;2.58;;;17.50;99.90;;;;;;5077684;28;20036;-83
2023/07/26 10:42:02;;;;;;;4.28;2.30;;;17.50;99.90;;;;;;5069483;28;20124;-83
2023/07/26 10:44:28;;;;;;;4.32;2.20;;;17.60;99.90;;;;;;5045619;28;20048;-83
2023/07/26 10:47:03;;;;;;;5.65;2.75;;;17.80;99.90;;;;;;5066318;28;20036;-83
2023/07/26 10:49:30;;;;;;;6.07;2.45;;;17.70;99.90;;;;;;5074432;28;20047;-83
2023/07/26 10:52:04;;;;;;;4.78;2.20;;;17.70;99.90;;;;;;5062656;28;20379;-83
2023/07/26 10:54:38;;;;;;;4.45;2.45;;;17.70;99.90;;;;;;5051336;28;20152;-82
2023/07/26 10:57:16;;;;;;;5.38;2.22;;;17.60;99.90;;;;;;5072652;28;20041;-81
2023/07/26 10:59:57;;;;;;;5.93;2.10;;;17.70;99.90;;;;;;5068598;28;20123;-80
2023/07/26 11:02:59;;;;;;;4.32;2.00;;;17.90;99.90;;;;;;5064755;28;20128;-74
2023/07/26 11:05:26;;;;;;;6.40;2.30;;;17.90;99.90;;;;;;5057251;28;20048;-78
2023/07/26 11:07:52;;;;;;;5.25;2.20;;;18.10;99.90;;;;;;5052372;28;20528;-77
2023/07/26 11:10:21;;;;;;;4.72;1.95;;;18.20;99.90;;;;;;5053776;28;20124;-77
2023/07/26 11:13:10;;;;;;;4.57;2.20;;;18.20;99.90;;;;;;5067213;28;20048;-77
2023/07/26 11:15:39;;;;;;;5.80;2.00;;;18.10;99.90;;;;;;5067367;28;20090;-77
2023/07/26 11:18:04;;;;;;;4.32;2.17;;;18.00;99.90;;;;;;5062729;28;20083;-82
2023/07/26 11:20:30;;;;;;;4.97;1.90;;;17.80;99.90;;;;;;5057178;28;20037;-82
2023/07/26 11:22:56;;;;;;;5.55;2.60;;;17.90;99.90;;;;;;5079614;28;20397;-82
2023/07/26 11:25:21;;;;;;;6.18;2.30;;;17.90;99.90;;;;;;5073430;28;20124;-82
2023/07/26 11:27:48;;;;;;;3.67;1.98;;;18.10;99.90;;;;;;5051609;28;20132;-82
2023/07/26 11:30:19;;;;;;;4.57;2.00;;;18.10;99.90;;;;;;5067434;28;20048;-82
2023/07/26 11:32:46;;;;;;;4.25;1.85;;;18.30;99.90;;;;;;5055639;28;20088;-82
2023/07/26 11:35:14;;;;;;;3.88;1.63;;;18.50;99.90;;;;;;5042789;28;20037;-82
2023/07/26 11:37:52;;;;;;;5.35;1.88;;;18.40;99.90;;;;;;5073587;28;20119;-82
2023/07/26 11:40:18;;;;;;;3.22;1.60;;;18.30;99.90;;;;;;5070780;28;20040;-82
2023/07/26 11:42:44;;;;;;;3.47;1.67;;;18.10;99.90;;;;;;5058583;28;20038;-82
2023/07/26 11:45:10;;;;;;;4.65;1.83;;;18.20;99.90;;;;;;5076749;28;20041;-82
2023/07/26 11:47:36;;;;;;;4.38;1.80;;;18.40;99.90;;;;;;5070323;28;20048;-82
2023/07/26 11:50:03;;;;;;;3.72;1.70;;;18.20;99.90;;;;;;5065547;28;20044;-82
2023/07/26 11:52:29;;;;;;;4.10;1.73;;;18.10;99.90;;;;;;5054254;28;20151;-82
2023/07/26 11:55:01;;;;;;;3.45;1.50;;;18.20;99.90;;;;;;5053062;28;20044;-82
2023/07/26 11:57:28;;;;;;;3.20;1.80;;;18.00;99.90;;;;;;5070986;28;20041;-82
2023/07/26 11:59:56;;;;;;;3.97;1.42;;;17.90;99.90;;;;;;5057216;28;20393;-82
2023/07/26 12:02:25;;;;;;;3.20;1.30;;;17.90;99.90;;;;;;5068197;28;20040;-82
2023/07/26 12:05:19;;;;;;;3.58;1.30;;;17.70;99.90;;;;;;5055114;28;20120;-82
2023/07/26 12:07:47;;;;;;;3.88;1.50;;;17.50;99.90;;;;;;5056741;28;20048;-82
2023/07/26 12:10:13;;;;;;;2.97;1.30;;;17.10;99.90;;;;;;5070502;28;20041;-82
2023/07/26 12:12:40;;;;;;;4.22;1.45;;;17.20;99.90;;;;;;5039434;28;20382;-81
2023/07/26 12:15:08;;;;;;;4.38;1.60;;;17.00;99.90;;;;;;5081085;28;20052;-81
2023/07/26 12:17:34;;;;;;;3.42;1.50;;;16.80;99.90;;;;;;5071367;28;20048;-81
2023/07/26 12:20:04;;;;;;;4.55;1.70;;;16.80;99.90;;;;;;5061628;28;20066;-81
2023/07/26 12:22:30;;;;;;;4.57;1.80;;;16.80;99.90;;;;;;5067117;28;20101;-81
2023/07/26 12:25:00;;;;;;;3.95;1.55;;;16.90;99.90;;;;;;5077495;28;20476;-82
2023/07/26 12:27:26;;;;;;;4.53;1.65;;;17.00;99.90;;;;;;5058746;28;20045;-82
2023/07/26 12:29:52;;;;;;;3.72;1.50;;;17.00;99.90;;;;;;5071037;28;20051;-81
2023/07/26 12:32:18;;;;;;;3.78;1.50;;;17.00;99.90;;;;;;5061649;28;20037;-81
2023/07/26 12:34:43;;;;;;;4.63;1.80;;;16.90;99.90;;;;;;5060273;28;20424;-81
2023/07/26 12:37:09;;;;;;;3.38;1.63;;;17.00;99.90;;;;;;5062538;28;20071;-82
2023/07/26 12:39:40;;;;;;;5.22;1.80;;;17.00;99.90;;;;;;5060822;28;20482;-82
2023/07/26 12:42:06;;;;;;;4.45;1.80;;;17.00;99.90;;;;;;5052715;28;20075;-83
2023/07/26 12:44:32;;;;;;;5.18;1.75;;;17.00;99.90;;;;;;5062871;28;20439;-82
2023/07/26 12:46:59;;;;;;;4.57;1.75;;;16.90;99.90;;;;;;5064111;28;20044;-83